createdAt,value
2022-12-11T00:00:56.353Z,18.05
2022-12-11T00:03:23.856Z,18.20
2022-12-11T00:05:51.433Z,17.10
2022-12-11T00:08:19.049Z,16.90
2022-12-11T00:10:50.323Z,17.33
2022-12-11T00:13:17.955Z,17.52
2022-12-11T00:15:45.496Z,16.77
2022-12-11T00:18:14.822Z,17.67
2022-12-11T00:20:42.674Z,17.25
2022-12-11T00:23:11.036Z,18.85
2022-12-11T00:25:44.004Z,19.70
2022-12-11T00:28:18.846Z,16.90
2022-12-11T00:30:46.734Z,16.00
2022-12-11T00:33:15.168Z,16.50
2022-12-11T00:35:44.805Z,18.85
2022-12-11T00:38:21.515Z,17.83
2022-12-11T00:40:49.274Z,16.20
2022-12-11T00:43:17.530Z,16.88
2022-12-11T00:45:47.363Z,17.60
2022-12-11T00:48:14.975Z,16.73
2022-12-11T00:50:42.976Z,19.00
2022-12-11T00:53:10.584Z,21.33
2022-12-11T00:55:40.056Z,20.60
2022-12-11T00:58:07.767Z,17.80
2022-12-11T01:00:35.640Z,17.60
2022-12-11T01:03:03.660Z,18.25
2022-12-11T01:05:31.791Z,17.75
2022-12-11T01:07:59.697Z,17.83
2022-12-11T01:10:27.824Z,20.55
2022-12-11T01:13:01.289Z,18.05
2022-12-11T01:15:38.683Z,18.88
2022-12-11T01:18:10.436Z,16.85
2022-12-11T01:20:40.121Z,17.77
2022-12-11T01:23:07.834Z,16.95
2022-12-11T01:25:38.247Z,18.10
2022-12-11T01:28:06.195Z,17.55
2022-12-11T01:30:34.217Z,17.85
2022-12-11T01:33:02.045Z,17.25
2022-12-11T01:35:29.717Z,16.95
2022-12-11T01:37:57.405Z,17.45
2022-12-11T01:40:25.359Z,17.77
2022-12-11T01:42:53.106Z,18.85
2022-12-11T01:45:27.385Z,17.25
2022-12-11T01:48:06.392Z,20.23
2022-12-11T01:50:39.427Z,16.67
2022-12-11T01:53:10.563Z,19.00
2022-12-11T01:55:40.010Z,18.05
2022-12-11T01:58:10.275Z,18.42
2022-12-11T02:00:37.836Z,18.75
2022-12-11T02:03:05.410Z,19.77
2022-12-11T02:05:34.428Z,20.88
2022-12-11T02:08:03.643Z,20.75
2022-12-11T02:10:48.299Z,20.83
2022-12-11T02:13:23.548Z,18.52
2022-12-11T02:16:06.037Z,20.40
2022-12-11T02:19:16.678Z,18.48
2022-12-11T02:21:50.881Z,18.63
2022-12-11T02:24:32.982Z,18.98
2022-12-11T02:27:03.593Z,18.35
2022-12-11T02:29:53.318Z,20.77
2022-12-11T02:32:46.015Z,18.52
2022-12-11T02:35:30.977Z,18.02
2022-12-11T02:38:04.208Z,19.20
2022-12-11T02:40:35.221Z,19.92
2022-12-11T02:43:06.576Z,20.92
2022-12-11T02:45:35.449Z,20.00
2022-12-11T02:48:05.904Z,21.27
2022-12-11T02:50:36.235Z,21.65
2022-12-11T02:53:05.720Z,21.02
2022-12-11T02:55:35.927Z,20.85
2022-12-11T02:58:09.848Z,21.45
2022-12-11T03:00:37.434Z,20.48
2022-12-11T03:03:05.368Z,21.90
2022-12-11T03:05:32.998Z,23.67
2022-12-11T03:08:01.755Z,27.83
2022-12-11T03:10:29.512Z,27.88
2022-12-11T03:12:59.081Z,25.88
2022-12-11T03:16:04.406Z,25.23
2022-12-11T03:19:09.001Z,21.90
2022-12-11T03:22:07.137Z,21.05
2022-12-11T03:24:57.962Z,19.52
2022-12-11T03:27:28.585Z,20.45
2022-12-11T03:30:10.394Z,21.75
2022-12-11T03:35:25.168Z,19.27
2022-12-11T03:37:54.936Z,19.92
2022-12-11T03:40:25.716Z,20.25
2022-12-11T03:42:55.975Z,21.60
2022-12-11T03:45:25.909Z,20.73
2022-12-11T03:47:55.149Z,20.65
2022-12-11T03:50:24.536Z,19.88
2022-12-11T03:52:53.794Z,20.70
2022-12-11T03:55:22.642Z,21.77
2022-12-11T03:57:50.275Z,22.10
2022-12-11T04:00:20.177Z,20.98
2022-12-11T04:03:12.951Z,21.52
2022-12-11T04:05:43.743Z,21.38
2022-12-11T04:08:11.854Z,21.77
2022-12-11T04:10:40.108Z,20.75
2022-12-11T04:13:08.648Z,21.10
2022-12-11T04:15:37.132Z,21.40
2022-12-11T04:18:24.024Z,21.63
2022-12-11T04:21:14.484Z,22.27
2022-12-11T04:24:00.397Z,21.95
2022-12-11T04:26:28.195Z,21.50
2022-12-11T04:28:55.721Z,23.15
2022-12-11T04:31:23.384Z,23.73
2022-12-11T04:33:51.003Z,23.65
2022-12-11T04:36:18.647Z,21.17
2022-12-11T04:38:46.269Z,21.70
2022-12-11T04:41:15.629Z,21.95
2022-12-11T04:43:47.064Z,22.15
2022-12-11T04:46:20.759Z,21.52
2022-12-11T04:48:55.364Z,22.42
2022-12-11T04:51:25.313Z,22.77
2022-12-11T04:53:53.263Z,21.67
2022-12-11T04:56:21.058Z,22.95
2022-12-11T04:58:48.951Z,23.33
2022-12-11T05:01:20.083Z,22.45
2022-12-11T05:03:48.233Z,21.75
2022-12-11T05:06:15.897Z,22.85
2022-12-11T05:08:45.287Z,22.17
2022-12-11T05:11:15.249Z,21.83
2022-12-11T05:13:43.437Z,22.92
2022-12-11T05:16:14.854Z,21.95
2022-12-11T05:18:42.859Z,20.55
2022-12-11T05:21:13.058Z,21.05
2022-12-11T05:23:41.023Z,22.02
2022-12-11T05:26:13.466Z,21.75
2022-12-11T05:28:41.305Z,21.45
2022-12-11T05:31:13.987Z,21.40
2022-12-11T05:33:42.064Z,22.25
2022-12-11T05:36:15.742Z,23.63
2022-12-11T05:38:43.323Z,23.52
2022-12-11T05:41:13.709Z,23.30
2022-12-11T05:43:42.488Z,23.70
2022-12-11T05:46:16.853Z,24.15
2022-12-11T05:48:46.549Z,22.42
2022-12-11T05:51:15.280Z,25.20
2022-12-11T05:53:44.917Z,24.52
2022-12-11T05:56:14.545Z,25.55
2022-12-11T05:58:43.878Z,24.15
2022-12-11T06:01:15.243Z,23.98
2022-12-11T06:03:43.084Z,22.38
2022-12-11T06:06:10.793Z,22.98
2022-12-11T06:08:38.338Z,24.77
2022-12-11T06:11:06.333Z,25.33
2022-12-11T06:13:35.415Z,23.85
2022-12-11T06:16:05.447Z,24.80
2022-12-11T06:18:40.145Z,25.08
2022-12-11T06:21:18.108Z,26.60
2022-12-11T06:23:47.206Z,26.35
2022-12-11T06:26:15.573Z,29.30
2022-12-11T06:28:43.528Z,28.33
2022-12-11T06:31:11.705Z,30.25
2022-12-11T06:33:39.721Z,28.83
2022-12-11T06:36:10.162Z,28.55
2022-12-11T06:38:38.045Z,29.40
2022-12-11T06:41:06.468Z,31.48
2022-12-11T06:43:36.151Z,29.48
2022-12-11T06:46:08.998Z,29.77
2022-12-11T06:48:37.323Z,29.83
2022-12-11T06:51:13.559Z,31.13
2022-12-11T06:53:41.693Z,30.65
2022-12-11T06:56:12.549Z,30.75
2022-12-11T06:58:41.443Z,31.80
2022-12-11T07:01:24.128Z,29.90
2022-12-11T07:04:07.928Z,28.73
2022-12-11T07:06:43.066Z,28.65
2022-12-11T07:09:11.177Z,29.50
2022-12-11T07:11:38.652Z,28.88
2022-12-11T07:14:06.224Z,29.05
2022-12-11T07:16:33.777Z,31.13
2022-12-11T07:19:01.398Z,29.98
2022-12-11T07:21:28.912Z,28.23
2022-12-11T07:23:56.406Z,30.25
2022-12-11T07:26:23.937Z,31.85
2022-12-11T07:28:51.571Z,29.33
2022-12-11T07:31:21.521Z,27.85
2022-12-11T07:33:53.978Z,29.67
2022-12-11T07:36:22.499Z,30.60
2022-12-11T07:38:50.105Z,29.90
2022-12-11T07:41:18.165Z,27.35
2022-12-11T07:43:54.368Z,28.77
2022-12-11T07:46:25.181Z,31.60
2022-12-11T07:48:53.023Z,32.17
2022-12-11T07:51:26.387Z,31.58
2022-12-11T07:53:56.663Z,31.17
2022-12-11T07:56:24.191Z,30.17
2022-12-11T07:58:52.084Z,30.85
2022-12-11T08:01:22.795Z,32.75
2022-12-11T08:03:53.656Z,29.60
2022-12-11T08:06:26.132Z,30.50
2022-12-11T08:08:54.882Z,32.10
2022-12-11T08:11:22.795Z,30.90
2022-12-11T08:13:50.389Z,31.65
2022-12-11T08:16:18.861Z,31.80
2022-12-11T08:18:47.471Z,30.17
2022-12-11T08:21:26.951Z,30.58
2022-12-11T08:23:55.618Z,31.00
2022-12-11T08:26:28.876Z,31.25
2022-12-11T08:28:57.307Z,30.27
2022-12-11T08:31:25.541Z,31.83
2022-12-11T08:33:54.852Z,32.90
2022-12-11T08:36:24.021Z,31.70
2022-12-11T08:38:52.304Z,29.67
2022-12-11T08:41:22.997Z,30.05
2022-12-11T08:43:54.910Z,30.75
2022-12-11T08:46:25.263Z,29.48
2022-12-11T08:48:54.788Z,29.25
2022-12-11T08:51:26.205Z,28.40
2022-12-11T08:53:58.848Z,29.92
2022-12-11T08:56:27.729Z,29.50
2022-12-11T08:58:55.856Z,27.67
2022-12-11T09:01:27.906Z,30.00
2022-12-11T09:03:56.820Z,28.15
2022-12-11T09:06:26.922Z,27.38
2022-12-11T09:08:56.083Z,27.48
2022-12-11T09:11:26.378Z,26.73
2022-12-11T09:13:54.537Z,27.58
2022-12-11T09:16:24.078Z,26.98
2022-12-11T09:18:54.077Z,27.02
2022-12-11T09:21:27.485Z,29.83
2022-12-11T09:23:57.772Z,28.95
2022-12-11T09:26:26.451Z,27.17
2022-12-11T09:28:55.014Z,29.70
2022-12-11T09:31:29.396Z,27.35
2022-12-11T09:34:01.531Z,28.33
2022-12-11T09:36:29.768Z,27.73
2022-12-11T09:39:01.880Z,29.00
2022-12-11T09:41:29.397Z,27.98
2022-12-11T09:43:59.756Z,28.10
2022-12-11T09:46:33.804Z,29.25
2022-12-11T09:49:04.813Z,29.60
2022-12-11T09:52:11.251Z,28.40
2022-12-11T09:54:54.402Z,28.13
2022-12-11T09:57:48.089Z,28.63
2022-12-11T10:00:28.263Z,29.25
2022-12-11T10:03:41.164Z,25.85
2022-12-11T10:06:28.333Z,28.23
2022-12-11T10:09:25.990Z,28.17
2022-12-11T10:12:34.357Z,28.38
2022-12-11T10:15:29.351Z,26.90
2022-12-11T10:18:04.613Z,28.02
2022-12-11T10:20:39.154Z,29.33
2022-12-11T10:23:09.609Z,28.42
2022-12-11T10:25:41.629Z,28.63
2022-12-11T10:28:20.000Z,27.55
2022-12-11T10:31:19.498Z,30.58
2022-12-11T10:33:53.252Z,29.13
2022-12-11T10:36:27.509Z,30.05
2022-12-11T10:38:55.363Z,29.35
2022-12-11T10:41:28.202Z,30.85
2022-12-11T10:43:55.785Z,30.10
2022-12-11T10:46:26.431Z,28.80
2022-12-11T10:48:57.600Z,30.00
2022-12-11T10:51:34.864Z,29.85
2022-12-11T10:54:34.898Z,27.33
2022-12-11T10:57:04.630Z,28.20
2022-12-11T10:59:40.703Z,28.52
2022-12-11T11:02:33.142Z,25.83
2022-12-11T11:05:11.586Z,23.63
2022-12-11T11:07:39.798Z,27.08
2022-12-11T11:10:10.616Z,24.70
2022-12-11T11:12:48.683Z,25.45
2022-12-11T11:15:21.165Z,24.90
2022-12-11T11:17:57.152Z,23.58
2022-12-11T11:20:30.275Z,25.95
2022-12-11T11:23:00.573Z,24.00
2022-12-11T11:25:31.019Z,23.80
2022-12-11T11:28:07.924Z,23.08
2022-12-11T11:30:42.499Z,21.30
2022-12-11T11:33:22.276Z,22.25
2022-12-11T11:36:02.485Z,20.83
2022-12-11T11:38:45.395Z,21.33
2022-12-11T11:41:29.671Z,19.75
2022-12-11T11:44:04.520Z,19.27
2022-12-11T11:46:43.258Z,18.92
2022-12-11T11:49:30.731Z,19.08
2022-12-11T11:52:15.952Z,18.60
2022-12-11T11:54:49.424Z,20.17
2022-12-11T11:57:39.159Z,19.30
2022-12-11T12:00:18.258Z,18.25
2022-12-11T12:02:47.117Z,16.55
2022-12-11T12:05:17.222Z,15.23
2022-12-11T12:08:04.236Z,16.23
2022-12-11T12:10:40.827Z,15.25
2022-12-11T12:16:55.614Z,13.40
2022-12-11T12:20:09.344Z,14.70
2022-12-11T12:22:52.045Z,14.65
2022-12-11T12:25:31.750Z,13.70
2022-12-11T12:28:27.338Z,13.52
2022-12-11T12:31:25.388Z,13.27
2022-12-11T12:34:17.664Z,13.02
2022-12-11T12:37:11.102Z,12.95
2022-12-11T12:39:53.680Z,13.55
2022-12-11T12:42:35.638Z,13.18
2022-12-11T12:45:15.205Z,13.63
2022-12-11T12:47:50.353Z,14.45
2022-12-11T12:50:24.899Z,13.90
2022-12-11T12:52:55.208Z,14.13
2022-12-11T12:55:27.216Z,13.85
2022-12-11T12:58:01.075Z,14.45
2022-12-11T13:00:31.665Z,14.63
2022-12-11T13:03:03.353Z,13.55
2022-12-11T13:08:04.569Z,13.18
2022-12-11T13:10:37.706Z,14.32
2022-12-11T13:13:25.119Z,13.50
2022-12-11T13:15:53.369Z,13.65
2022-12-11T13:18:39.757Z,14.65
2022-12-11T13:21:43.092Z,15.45
2022-12-11T13:24:14.300Z,14.73
2022-12-11T13:26:42.628Z,15.13
2022-12-11T13:29:37.856Z,15.82
2022-12-11T13:32:29.988Z,14.70
2022-12-11T13:34:59.668Z,17.23
2022-12-11T13:37:38.704Z,15.55
2022-12-11T13:40:15.212Z,15.45
2022-12-11T13:42:59.603Z,16.20
2022-12-11T13:45:35.220Z,16.20
2022-12-11T13:48:04.994Z,15.60
2022-12-11T13:50:34.673Z,16.85
2022-12-11T13:53:03.599Z,17.33
2022-12-11T13:55:33.785Z,18.50
2022-12-11T13:58:01.864Z,17.85
2022-12-11T14:00:32.729Z,18.65
2022-12-11T14:03:05.398Z,20.30
2022-12-11T14:05:34.830Z,19.17
2022-12-11T14:08:10.120Z,18.80
2022-12-11T14:10:38.877Z,18.60
2022-12-11T14:13:23.446Z,18.95
2022-12-11T14:15:51.876Z,17.65
2022-12-11T14:18:27.358Z,18.88
2022-12-11T14:21:06.485Z,19.23
2022-12-11T14:23:36.676Z,18.33
2022-12-11T14:26:17.877Z,17.35
2022-12-11T14:28:46.028Z,18.15
2022-12-11T14:31:18.203Z,18.85
2022-12-11T14:33:52.437Z,19.15
2022-12-11T14:36:21.484Z,20.67
2022-12-11T14:39:18.976Z,18.73
2022-12-11T14:41:51.441Z,19.58
2022-12-11T14:44:21.567Z,18.50
2022-12-11T14:46:54.448Z,18.55
2022-12-11T14:49:46.751Z,19.17
2022-12-11T14:52:22.924Z,19.13
2022-12-11T14:54:59.903Z,19.35
2022-12-11T14:57:30.772Z,19.38
2022-12-11T14:59:58.573Z,18.95
2022-12-11T15:02:34.725Z,20.40
2022-12-11T15:05:19.114Z,29.05
2022-12-11T15:07:59.528Z,19.40
2022-12-11T15:11:14.216Z,18.90
2022-12-11T15:13:59.196Z,18.40
2022-12-11T15:16:29.378Z,20.05
2022-12-11T15:18:58.929Z,18.63
2022-12-11T15:21:34.823Z,20.20
2022-12-11T15:24:04.975Z,20.52
2022-12-11T15:27:01.078Z,18.77
2022-12-11T15:29:39.976Z,22.17
2022-12-11T15:32:14.123Z,25.13
2022-12-11T15:34:52.404Z,27.85
2022-12-11T15:37:26.761Z,28.13
2022-12-11T15:39:56.273Z,29.63
2022-12-11T15:42:36.541Z,31.35
2022-12-11T15:45:08.979Z,29.95
2022-12-11T15:47:36.847Z,29.88
2022-12-11T15:50:16.823Z,29.17
2022-12-11T15:52:44.887Z,32.03
2022-12-11T15:55:12.951Z,34.70
2022-12-11T15:57:49.089Z,31.10
2022-12-11T16:00:18.980Z,34.08
2022-12-11T16:02:47.029Z,32.92
2022-12-11T16:05:15.039Z,28.83
2022-12-11T16:07:42.815Z,31.75
2022-12-11T16:10:17.540Z,31.15
2022-12-11T16:12:45.362Z,31.67
2022-12-11T16:15:20.060Z,30.63
2022-12-11T16:17:58.607Z,28.48
2022-12-11T16:20:26.184Z,36.10
2022-12-11T16:22:53.701Z,38.15
2022-12-11T16:25:21.315Z,32.65
2022-12-11T16:27:48.825Z,39.28
2022-12-11T16:30:16.846Z,30.48
2022-12-11T16:32:45.496Z,33.88
2022-12-11T16:35:13.333Z,35.88
2022-12-11T16:37:41.039Z,32.70
2022-12-11T16:40:09.348Z,30.65
2022-12-11T16:42:38.483Z,30.30
2022-12-11T16:45:10.647Z,25.20
2022-12-11T16:47:38.454Z,29.90
2022-12-11T16:50:06.453Z,29.00
2022-12-11T16:52:34.796Z,25.48
2022-12-11T16:55:02.303Z,28.05
2022-12-11T16:57:29.904Z,26.58
2022-12-11T16:59:57.516Z,26.38
2022-12-11T17:02:25.178Z,26.80
2022-12-11T17:04:54.170Z,26.70
2022-12-11T17:07:21.987Z,26.88
2022-12-11T17:09:49.579Z,28.65
2022-12-11T17:12:17.946Z,26.38
2022-12-11T17:14:45.890Z,28.80
2022-12-11T17:17:13.633Z,27.77
2022-12-11T17:19:41.099Z,25.58
2022-12-11T17:22:08.672Z,27.58
2022-12-11T17:24:36.192Z,26.92
2022-12-11T17:27:03.766Z,27.55
2022-12-11T17:29:31.792Z,23.88
2022-12-11T17:31:59.640Z,24.83
2022-12-11T17:34:27.119Z,25.88
2022-12-11T17:36:54.676Z,24.27
2022-12-11T17:39:22.171Z,25.25
2022-12-11T17:41:49.693Z,25.85
2022-12-11T17:44:17.257Z,24.65
2022-12-11T17:46:44.875Z,24.00
2022-12-11T17:49:12.431Z,23.75
2022-12-11T17:51:39.980Z,26.75
2022-12-11T17:54:07.546Z,25.55
2022-12-11T17:56:36.301Z,24.98
2022-12-11T17:59:04.654Z,24.73
2022-12-11T18:01:32.462Z,23.13
2022-12-11T18:04:01.909Z,22.35
2022-12-11T18:06:30.072Z,22.50
2022-12-11T18:08:57.973Z,22.15
2022-12-11T18:11:25.670Z,22.50
2022-12-11T18:13:53.882Z,22.38
2022-12-11T18:16:28.113Z,23.05
2022-12-11T18:18:56.566Z,26.00
2022-12-11T18:21:27.436Z,25.13
2022-12-11T18:23:55.009Z,25.27
2022-12-11T18:26:22.771Z,24.23
2022-12-11T18:28:51.261Z,24.35
2022-12-11T18:31:19.694Z,23.55
2022-12-11T18:33:48.629Z,24.30
2022-12-11T18:36:17.333Z,24.30
2022-12-11T18:38:45.479Z,22.88
2022-12-11T18:41:14.062Z,28.33
2022-12-11T18:43:42.008Z,26.00
2022-12-11T18:46:15.742Z,23.60
2022-12-11T18:48:45.074Z,24.75
2022-12-11T18:51:17.159Z,24.73
2022-12-11T18:53:45.093Z,23.95
2022-12-11T18:56:17.017Z,24.00
2022-12-11T18:58:45.451Z,24.48
2022-12-11T19:01:28.813Z,22.77
2022-12-11T19:04:09.042Z,23.50
2022-12-11T19:06:38.307Z,23.10
2022-12-11T19:09:07.536Z,24.02
2022-12-11T19:11:38.710Z,24.40
2022-12-11T19:14:07.600Z,24.83
2022-12-11T19:16:38.036Z,25.13
2022-12-11T19:19:09.953Z,23.83
2022-12-11T19:21:38.726Z,23.55
2022-12-11T19:24:08.460Z,24.55
2022-12-11T19:26:37.048Z,24.88
2022-12-11T19:29:04.724Z,23.67
2022-12-11T19:31:32.819Z,24.05
2022-12-11T19:34:01.191Z,25.23
2022-12-11T19:36:30.763Z,25.50
2022-12-11T19:39:01.859Z,25.63
2022-12-11T19:41:31.180Z,28.42
2022-12-11T19:43:59.968Z,26.73
2022-12-11T19:46:28.656Z,25.73
2022-12-11T19:48:58.186Z,27.25
2022-12-11T19:51:33.631Z,26.80
2022-12-11T19:54:05.225Z,25.35
2022-12-11T19:56:33.933Z,24.67
2022-12-11T19:59:07.208Z,46.38
2022-12-11T20:01:36.907Z,27.08
2022-12-11T20:04:10.751Z,25.23
2022-12-11T20:06:40.805Z,27.23
2022-12-11T20:09:11.899Z,31.33
2022-12-11T20:11:42.259Z,28.40
2022-12-11T20:14:26.173Z,30.35
2022-12-11T20:17:11.302Z,26.33
2022-12-11T20:19:41.674Z,25.52
2022-12-11T20:22:09.753Z,26.00
2022-12-11T20:24:37.489Z,23.92
2022-12-11T20:27:05.209Z,23.67
2022-12-11T20:29:33.603Z,23.30
2022-12-11T20:32:01.577Z,24.42
2022-12-11T20:34:29.854Z,26.00
2022-12-11T20:36:59.919Z,32.25
2022-12-11T20:39:28.388Z,32.38
2022-12-11T20:42:04.736Z,33.55
2022-12-11T20:44:36.291Z,44.05
2022-12-11T20:47:03.919Z,42.90
2022-12-11T20:49:32.120Z,32.30
2022-12-11T20:52:02.958Z,31.05
2022-12-11T20:54:30.828Z,37.75
2022-12-11T20:56:58.936Z,40.05
2022-12-11T20:59:26.681Z,36.08
2022-12-11T21:01:54.827Z,35.90
2022-12-11T21:04:22.924Z,36.03
2022-12-11T21:06:55.210Z,34.45
2022-12-11T21:09:25.076Z,33.20
2022-12-11T21:11:52.824Z,31.23
2022-12-11T21:14:20.573Z,29.50
2022-12-11T21:16:48.240Z,29.95
2022-12-11T21:19:17.111Z,31.92
2022-12-11T21:21:46.030Z,29.40
2022-12-11T21:24:19.778Z,32.85
2022-12-11T21:26:48.452Z,33.65
2022-12-11T21:29:16.881Z,34.17
2022-12-11T21:31:44.877Z,34.53
2022-12-11T21:34:12.815Z,32.65
2022-12-11T21:36:40.963Z,32.08
2022-12-11T21:39:08.845Z,30.58
2022-12-11T21:41:36.363Z,32.10
2022-12-11T21:46:51.704Z,34.80
2022-12-11T21:49:20.607Z,32.85
2022-12-11T21:51:48.333Z,32.72
2022-12-11T21:54:18.840Z,32.65
2022-12-11T21:56:47.313Z,30.80
2022-12-11T21:59:15.128Z,32.67
2022-12-11T22:01:45.977Z,32.35
2022-12-11T22:04:15.021Z,35.92
2022-12-11T22:06:43.666Z,30.75
2022-12-11T22:09:12.975Z,30.00
2022-12-11T22:11:41.871Z,29.65
2022-12-11T22:14:16.076Z,31.73
2022-12-11T22:16:44.772Z,30.92
2022-12-11T22:19:13.076Z,28.92
2022-12-11T22:21:41.077Z,31.73
2022-12-11T22:24:09.136Z,30.55
2022-12-11T22:26:36.733Z,30.70
2022-12-11T22:29:04.345Z,30.02
2022-12-11T22:31:32.358Z,31.58
2022-12-11T22:33:59.969Z,34.28
2022-12-11T22:36:27.816Z,32.58
2022-12-11T22:38:55.746Z,32.90
2022-12-11T22:41:28.303Z,33.58
2022-12-11T22:43:56.690Z,33.55
2022-12-11T22:46:27.892Z,30.58
2022-12-11T22:48:55.569Z,34.03
2022-12-11T22:51:23.192Z,33.40
2022-12-11T22:53:51.114Z,34.60
2022-12-11T22:56:18.674Z,38.95
2022-12-11T22:58:46.732Z,36.55
2022-12-11T23:01:18.556Z,40.95
2022-12-11T23:03:46.982Z,38.35
2022-12-11T23:06:17.154Z,34.83
2022-12-11T23:08:45.156Z,37.08
2022-12-11T23:11:16.069Z,37.45
2022-12-11T23:13:44.068Z,39.50
2022-12-11T23:16:12.519Z,38.05
2022-12-11T23:18:40.461Z,38.20
2022-12-11T23:21:09.096Z,38.53
2022-12-11T23:23:36.764Z,36.30
2022-12-11T23:26:06.245Z,35.90
2022-12-11T23:28:34.169Z,34.55
2022-12-11T23:31:01.766Z,34.30
2022-12-11T23:33:29.413Z,35.47
2022-12-11T23:35:57.890Z,30.25
2022-12-11T23:38:25.505Z,31.08
2022-12-11T23:40:53.474Z,29.85
2022-12-11T23:43:21.269Z,30.70
2022-12-11T23:45:48.832Z,31.80
2022-12-11T23:48:16.949Z,32.63
2022-12-11T23:50:45.265Z,36.20
2022-12-11T23:53:13.009Z,32.90
2022-12-11T23:55:42.845Z,32.97
2022-12-11T23:58:10.947Z,33.58
